PLF043 EPWA-EKKA
Flight info
| Callsign | PLF043 |
|---|---|
| Flight time | 2h 8m |
| Altitude | 18000 |
| Route | OLILA L621 SOMOR DCT RIKSU |
| Aircraft | C295/M-SDFGIRY/S |
Departure
| Time | 2026-05-04 09:02 |
|---|---|
| Airport | Warsaw Chopin Airport (EPWA) |
Arrival
| Time | 2026-05-04 11:10 |
|---|---|
| Airport | Midtjyllands Airport / Air Base Karup (EKKA) |
| Time | Latitude | Longitude | Altitude | Speed | Heading |
|---|---|---|---|---|---|
| 2026-05-04 08:46 | 52.17585 | 20.97076 | 353 ft | 0 kts | 242° |
| 2026-05-04 08:55 | 52.17584 | 20.97075 | 335 ft | 1 kts | 242° |
| 2026-05-04 08:55 | 52.17569 | 20.97030 | 332 ft | 4 kts | 241° |
| 2026-05-04 08:55 | 52.17566 | 20.97002 | 333 ft | 2 kts | 284° |
| 2026-05-04 08:57 | 52.17480 | 20.96534 | 332 ft | 12 kts | 230° |
| 2026-05-04 09:01 | 52.16454 | 20.97148 | 334 ft | 5 kts | 260° |
| 2026-05-04 09:01 | 52.16492 | 20.97001 | 333 ft | 30 kts | 291° |
| 2026-05-04 09:01 | 52.16666 | 20.96376 | 336 ft | 89 kts | 296° |
| 2026-05-04 09:01 | 52.16975 | 20.95224 | 336 ft | 132 kts | 292° |
| 2026-05-04 09:02 | 52.17402 | 20.93839 | 803 ft | 138 kts | 296° |
| 2026-05-04 09:02 | 52.17873 | 20.92325 | 1159 ft | 158 kts | 292° |
| 2026-05-04 09:02 | 52.18368 | 20.90664 | 1676 ft | 169 kts | 294° |
| 2026-05-04 09:02 | 52.19072 | 20.89135 | 2328 ft | 174 kts | 321° |
| 2026-05-04 09:03 | 52.20177 | 20.88424 | 3045 ft | 166 kts | 334° |
| 2026-05-04 09:03 | 52.21190 | 20.87710 | 3757 ft | 157 kts | 327° |
| 2026-05-04 09:03 | 52.22112 | 20.86827 | 4312 ft | 151 kts | 317° |
| 2026-05-04 09:03 | 52.22956 | 20.85784 | 4755 ft | 154 kts | 313° |
| 2026-05-04 09:04 | 52.23820 | 20.84550 | 4828 ft | 174 kts | 309° |
| 2026-05-04 09:04 | 52.24692 | 20.83135 | 5142 ft | 178 kts | 307° |
| 2026-05-04 09:04 | 52.25547 | 20.81682 | 5510 ft | 177 kts | 307° |
| 2026-05-04 09:04 | 52.26395 | 20.80220 | 5902 ft | 177 kts | 310° |
| 2026-05-04 09:05 | 52.27527 | 20.79350 | 6265 ft | 189 kts | 345° |
| 2026-05-04 09:05 | 52.28839 | 20.79021 | 6600 ft | 191 kts | 345° |
| 2026-05-04 09:05 | 52.30155 | 20.78679 | 6925 ft | 192 kts | 344° |
| 2026-05-04 09:05 | 52.31474 | 20.78310 | 7296 ft | 193 kts | 343° |
| 2026-05-04 09:06 | 52.32799 | 20.77938 | 7629 ft | 194 kts | 343° |
| 2026-05-04 09:07 | 52.42528 | 20.78350 | 9923 ft | 206 kts | 358° |
| 2026-05-04 09:08 | 52.43959 | 20.78524 | 10224 ft | 207 kts | 357° |
| 2026-05-04 09:08 | 52.45398 | 20.78696 | 10502 ft | 208 kts | 357° |
| 2026-05-04 09:08 | 52.46852 | 20.78871 | 10807 ft | 209 kts | 357° |
| 2026-05-04 09:08 | 52.48307 | 20.79044 | 11094 ft | 210 kts | 356° |
| 2026-05-04 09:09 | 52.49666 | 20.78576 | 11344 ft | 193 kts | 319° |
| 2026-05-04 09:09 | 52.50697 | 20.77196 | 11583 ft | 190 kts | 309° |
| 2026-05-04 09:09 | 52.51590 | 20.75608 | 11868 ft | 189 kts | 303° |
| 2026-05-04 09:09 | 52.52380 | 20.73919 | 12147 ft | 189 kts | 300° |
| 2026-05-04 09:10 | 52.53141 | 20.72153 | 12429 ft | 189 kts | 298° |
| 2026-05-04 09:10 | 52.53894 | 20.70382 | 12704 ft | 190 kts | 298° |
| 2026-05-04 09:10 | 52.54657 | 20.68599 | 12980 ft | 191 kts | 298° |
| 2026-05-04 09:10 | 52.55404 | 20.66862 | 13242 ft | 192 kts | 299° |
| 2026-05-04 09:11 | 52.56200 | 20.65049 | 13524 ft | 193 kts | 299° |
| 2026-05-04 09:11 | 52.56991 | 20.63263 | 13781 ft | 194 kts | 299° |
| 2026-05-04 09:11 | 52.57785 | 20.61470 | 14011 ft | 195 kts | 299° |
| 2026-05-04 09:11 | 52.58586 | 20.59661 | 14254 ft | 195 kts | 299° |
| 2026-05-04 09:12 | 52.59390 | 20.57848 | 14487 ft | 196 kts | 300° |
| 2026-05-04 09:12 | 52.60195 | 20.56035 | 14711 ft | 197 kts | 299° |
| 2026-05-04 09:14 | 52.65880 | 20.43159 | 16163 ft | 201 kts | 299° |
| 2026-05-04 09:14 | 52.66705 | 20.41290 | 16373 ft | 202 kts | 299° |
| 2026-05-04 09:14 | 52.67533 | 20.39410 | 16567 ft | 202 kts | 298° |
| 2026-05-04 09:14 | 52.68359 | 20.37528 | 16754 ft | 203 kts | 298° |
| 2026-05-04 09:15 | 52.69191 | 20.35634 | 16948 ft | 204 kts | 298° |
| 2026-05-04 09:15 | 52.70026 | 20.33733 | 17136 ft | 204 kts | 298° |
| 2026-05-04 09:15 | 52.70860 | 20.31868 | 17302 ft | 206 kts | 302° |
| 2026-05-04 09:15 | 52.71823 | 20.30083 | 17482 ft | 209 kts | 306° |
| 2026-05-04 09:17 | 52.80132 | 20.15045 | 17968 ft | 238 kts | 304° |
| 2026-05-04 09:18 | 52.81224 | 20.12965 | 17961 ft | 241 kts | 304° |
| 2026-05-04 09:18 | 52.82319 | 20.10845 | 17959 ft | 243 kts | 304° |
| 2026-05-04 09:18 | 52.83393 | 20.08722 | 17968 ft | 244 kts | 303° |
| 2026-05-04 09:18 | 52.84478 | 20.06552 | 17962 ft | 245 kts | 303° |
| 2026-05-04 09:19 | 52.85563 | 20.04360 | 17966 ft | 247 kts | 303° |
| 2026-05-04 09:19 | 52.86650 | 20.02152 | 17961 ft | 248 kts | 303° |
| 2026-05-04 09:19 | 52.87752 | 19.99954 | 17963 ft | 249 kts | 303° |
| 2026-05-04 09:19 | 52.88859 | 19.97748 | 17960 ft | 249 kts | 303° |
| 2026-05-04 09:20 | 52.89974 | 19.95530 | 17962 ft | 250 kts | 303° |
| 2026-05-04 09:20 | 52.91075 | 19.93339 | 17962 ft | 250 kts | 303° |
| 2026-05-04 09:20 | 52.92189 | 19.91117 | 17965 ft | 251 kts | 303° |
| 2026-05-04 09:20 | 52.93305 | 19.88892 | 17958 ft | 251 kts | 303° |
| 2026-05-04 09:21 | 52.94424 | 19.86663 | 17962 ft | 251 kts | 303° |
| 2026-05-04 09:21 | 52.95543 | 19.84426 | 17952 ft | 251 kts | 303° |
| 2026-05-04 09:21 | 52.96659 | 19.82202 | 17963 ft | 251 kts | 303° |
| 2026-05-04 09:21 | 52.97776 | 19.79971 | 17958 ft | 251 kts | 304° |
| 2026-05-04 09:22 | 52.98893 | 19.77734 | 17951 ft | 251 kts | 304° |
| 2026-05-04 09:22 | 53.00007 | 19.75504 | 17962 ft | 251 kts | 303° |
| 2026-05-04 09:22 | 53.01120 | 19.73273 | 17970 ft | 251 kts | 304° |
| 2026-05-04 09:22 | 53.02232 | 19.71036 | 17959 ft | 251 kts | 304° |
| 2026-05-04 09:23 | 53.03344 | 19.68806 | 17955 ft | 250 kts | 304° |
| 2026-05-04 09:23 | 53.04078 | 19.67329 | 17953 ft | 250 kts | 304° |
| 2026-05-04 09:23 | 53.05190 | 19.65089 | 17962 ft | 250 kts | 304° |
| 2026-05-04 09:23 | 53.06293 | 19.62856 | 17963 ft | 250 kts | 304° |
| 2026-05-04 09:25 | 53.14946 | 19.48338 | 17955 ft | 253 kts | 308° |
| 2026-05-04 09:25 | 53.16171 | 19.46244 | 17959 ft | 252 kts | 308° |
| 2026-05-04 09:26 | 53.17396 | 19.44145 | 17955 ft | 252 kts | 308° |
| 2026-05-04 09:26 | 53.18620 | 19.42052 | 17957 ft | 252 kts | 308° |
| 2026-05-04 09:26 | 53.19848 | 19.39957 | 17957 ft | 252 kts | 308° |
| 2026-05-04 09:26 | 53.21071 | 19.37860 | 17962 ft | 252 kts | 308° |
| 2026-05-04 09:27 | 53.22299 | 19.35761 | 17957 ft | 253 kts | 308° |
| 2026-05-04 09:27 | 53.23403 | 19.33530 | 17955 ft | 246 kts | 298° |
| 2026-05-04 09:27 | 53.24282 | 19.31084 | 17958 ft | 245 kts | 295° |
| 2026-05-04 09:27 | 53.25124 | 19.28620 | 17952 ft | 245 kts | 295° |
| 2026-05-04 09:28 | 53.25990 | 19.26169 | 17957 ft | 245 kts | 296° |
| 2026-05-04 09:28 | 53.26891 | 19.23739 | 17951 ft | 246 kts | 297° |
| 2026-05-04 09:28 | 53.27809 | 19.21318 | 17950 ft | 246 kts | 297° |
| 2026-05-04 09:28 | 53.28724 | 19.18902 | 17954 ft | 246 kts | 297° |
| 2026-05-04 09:29 | 53.29636 | 19.16480 | 17954 ft | 246 kts | 297° |
| 2026-05-04 09:29 | 53.30545 | 19.14061 | 17958 ft | 246 kts | 297° |
| 2026-05-04 09:29 | 53.31453 | 19.11634 | 17957 ft | 246 kts | 297° |
| 2026-05-04 09:29 | 53.32367 | 19.09197 | 17956 ft | 247 kts | 297° |
| 2026-05-04 09:30 | 53.33265 | 19.06799 | 17953 ft | 247 kts | 297° |
| 2026-05-04 09:30 | 53.34173 | 19.04368 | 17948 ft | 246 kts | 296° |
| 2026-05-04 09:30 | 53.35080 | 19.01936 | 17950 ft | 246 kts | 297° |
| 2026-05-04 09:30 | 53.35984 | 18.99512 | 17951 ft | 246 kts | 296° |
| 2026-05-04 09:31 | 53.36890 | 18.97081 | 17953 ft | 245 kts | 296° |
| 2026-05-04 09:31 | 53.37793 | 18.94652 | 17950 ft | 245 kts | 296° |
| 2026-05-04 09:31 | 53.38696 | 18.92225 | 17943 ft | 246 kts | 296° |
| 2026-05-04 09:31 | 53.39596 | 18.89793 | 17947 ft | 245 kts | 296° |
| 2026-05-04 09:32 | 53.40497 | 18.87364 | 17950 ft | 245 kts | 296° |
| 2026-05-04 09:32 | 53.41397 | 18.84940 | 17948 ft | 245 kts | 296° |
| 2026-05-04 09:34 | 53.47651 | 18.68007 | 17939 ft | 244 kts | 296° |
| 2026-05-04 09:34 | 53.48544 | 18.65579 | 17943 ft | 244 kts | 296° |
| 2026-05-04 09:34 | 53.49435 | 18.63152 | 17936 ft | 244 kts | 296° |
| 2026-05-04 09:34 | 53.50329 | 18.60720 | 17941 ft | 244 kts | 296° |
| 2026-05-04 09:35 | 53.51217 | 18.58296 | 17939 ft | 244 kts | 296° |
| 2026-05-04 09:35 | 53.52105 | 18.55875 | 17938 ft | 243 kts | 296° |
| 2026-05-04 09:35 | 53.52993 | 18.53451 | 17938 ft | 243 kts | 296° |
| 2026-05-04 09:35 | 53.53867 | 18.51062 | 17937 ft | 243 kts | 296° |
| 2026-05-04 09:37 | 53.60047 | 18.34100 | 17943 ft | 243 kts | 295° |
| 2026-05-04 09:37 | 53.60928 | 18.31668 | 17932 ft | 243 kts | 295° |
| 2026-05-04 09:38 | 53.61809 | 18.29238 | 17932 ft | 243 kts | 295° |
| 2026-05-04 09:38 | 53.62689 | 18.26810 | 17938 ft | 243 kts | 295° |
| 2026-05-04 09:38 | 53.63567 | 18.24375 | 17940 ft | 243 kts | 295° |
| 2026-05-04 09:38 | 53.64447 | 18.21937 | 17935 ft | 243 kts | 295° |
| 2026-05-04 09:39 | 53.65327 | 18.19501 | 17935 ft | 243 kts | 295° |
| 2026-05-04 09:39 | 53.66206 | 18.17060 | 17934 ft | 243 kts | 295° |
| 2026-05-04 09:39 | 53.67085 | 18.14625 | 17934 ft | 243 kts | 295° |
| 2026-05-04 09:39 | 53.67950 | 18.12221 | 17934 ft | 243 kts | 295° |
| 2026-05-04 09:40 | 53.68827 | 18.09784 | 17932 ft | 243 kts | 295° |
| 2026-05-04 09:40 | 53.69702 | 18.07350 | 17930 ft | 242 kts | 295° |
| 2026-05-04 09:40 | 53.70574 | 18.04924 | 17932 ft | 242 kts | 295° |
| 2026-05-04 09:40 | 53.71447 | 18.02489 | 17936 ft | 242 kts | 295° |
| 2026-05-04 09:41 | 53.72318 | 18.00060 | 17942 ft | 242 kts | 295° |
| 2026-05-04 09:42 | 53.78410 | 17.82993 | 17933 ft | 242 kts | 294° |
| 2026-05-04 09:43 | 53.79267 | 17.80578 | 17935 ft | 242 kts | 294° |
| 2026-05-04 09:43 | 53.80135 | 17.78134 | 17932 ft | 243 kts | 294° |
| 2026-05-04 09:43 | 53.81002 | 17.75685 | 17927 ft | 243 kts | 294° |
| 2026-05-04 09:43 | 53.81875 | 17.73236 | 17933 ft | 243 kts | 294° |
| 2026-05-04 09:44 | 53.82746 | 17.70784 | 17934 ft | 243 kts | 294° |
| 2026-05-04 09:44 | 53.83614 | 17.68329 | 17935 ft | 243 kts | 294° |
| 2026-05-04 09:44 | 53.84481 | 17.65867 | 17937 ft | 243 kts | 294° |
| 2026-05-04 09:46 | 53.90531 | 17.48676 | 17936 ft | 243 kts | 294° |
| 2026-05-04 09:46 | 53.91396 | 17.46209 | 17937 ft | 243 kts | 294° |
| 2026-05-04 09:46 | 53.92259 | 17.43745 | 17934 ft | 243 kts | 294° |
| 2026-05-04 09:47 | 53.93122 | 17.41277 | 17937 ft | 243 kts | 294° |
| 2026-05-04 09:47 | 53.93985 | 17.38811 | 17933 ft | 243 kts | 294° |
| 2026-05-04 09:49 | 53.99998 | 17.21539 | 17934 ft | 243 kts | 293° |
| 2026-05-04 09:49 | 54.00855 | 17.19060 | 17937 ft | 243 kts | 293° |
| 2026-05-04 09:49 | 54.01715 | 17.16583 | 17934 ft | 243 kts | 293° |
| 2026-05-04 09:51 | 54.06827 | 17.01773 | 17934 ft | 242 kts | 293° |
| 2026-05-04 09:51 | 54.07677 | 16.99301 | 17934 ft | 242 kts | 293° |
| 2026-05-04 09:51 | 54.08526 | 16.96826 | 17937 ft | 242 kts | 293° |
| 2026-05-04 09:51 | 54.09376 | 16.94352 | 17936 ft | 241 kts | 293° |
| 2026-05-04 09:52 | 54.10222 | 16.91884 | 17936 ft | 241 kts | 293° |
| 2026-05-04 09:52 | 54.11066 | 16.89416 | 17937 ft | 241 kts | 293° |
| 2026-05-04 09:52 | 54.11915 | 16.86938 | 17934 ft | 241 kts | 293° |
| 2026-05-04 09:52 | 54.12762 | 16.84467 | 17934 ft | 241 kts | 293° |
| 2026-05-04 09:53 | 54.13604 | 16.82001 | 17929 ft | 240 kts | 293° |
| 2026-05-04 09:53 | 54.14441 | 16.79540 | 17940 ft | 240 kts | 293° |
| 2026-05-04 09:53 | 54.15282 | 16.77074 | 17935 ft | 239 kts | 293° |
| 2026-05-04 09:53 | 54.16119 | 16.74618 | 17937 ft | 239 kts | 292° |
| 2026-05-04 09:54 | 54.16954 | 16.72162 | 17935 ft | 239 kts | 293° |
| 2026-05-04 09:54 | 54.17777 | 16.69739 | 17941 ft | 239 kts | 293° |
| 2026-05-04 09:54 | 54.18612 | 16.67277 | 17934 ft | 239 kts | 293° |
| 2026-05-04 09:54 | 54.19456 | 16.64788 | 17937 ft | 239 kts | 293° |
| 2026-05-04 09:55 | 54.20277 | 16.62367 | 17937 ft | 239 kts | 293° |
| 2026-05-04 09:55 | 54.21110 | 16.59904 | 17941 ft | 239 kts | 293° |
| 2026-05-04 09:55 | 54.21941 | 16.57445 | 17944 ft | 239 kts | 293° |
| 2026-05-04 09:55 | 54.22772 | 16.54986 | 17941 ft | 239 kts | 292° |
| 2026-05-04 09:56 | 54.23604 | 16.52525 | 17940 ft | 239 kts | 292° |
| 2026-05-04 09:56 | 54.24433 | 16.50061 | 17940 ft | 239 kts | 292° |
| 2026-05-04 09:56 | 54.25262 | 16.47602 | 17934 ft | 239 kts | 293° |
| 2026-05-04 09:56 | 54.26080 | 16.45167 | 17933 ft | 239 kts | 292° |
| 2026-05-04 09:57 | 54.26908 | 16.42704 | 17931 ft | 238 kts | 292° |
| 2026-05-04 09:57 | 54.27735 | 16.40243 | 17943 ft | 238 kts | 292° |
| 2026-05-04 09:57 | 54.28560 | 16.37782 | 17940 ft | 238 kts | 292° |
| 2026-05-04 09:57 | 54.29384 | 16.35321 | 17942 ft | 238 kts | 292° |
| 2026-05-04 09:58 | 54.30209 | 16.32859 | 17943 ft | 238 kts | 292° |
| 2026-05-04 09:58 | 54.31031 | 16.30399 | 17944 ft | 238 kts | 292° |
| 2026-05-04 09:58 | 54.31856 | 16.27930 | 17935 ft | 238 kts | 292° |
| 2026-05-04 10:00 | 54.37599 | 16.10666 | 17937 ft | 238 kts | 292° |
| 2026-05-04 10:00 | 54.38410 | 16.08224 | 17939 ft | 238 kts | 292° |
| 2026-05-04 10:02 | 54.44122 | 15.90914 | 17937 ft | 238 kts | 292° |
| 2026-05-04 10:04 | 54.49805 | 15.73568 | 17937 ft | 238 kts | 292° |
| 2026-05-04 10:04 | 54.50619 | 15.71075 | 17937 ft | 239 kts | 292° |
| 2026-05-04 10:04 | 54.51430 | 15.68588 | 17936 ft | 239 kts | 292° |
| 2026-05-04 10:04 | 54.52241 | 15.66097 | 17937 ft | 239 kts | 292° |
| 2026-05-04 10:05 | 54.53052 | 15.63607 | 17935 ft | 239 kts | 292° |
| 2026-05-04 10:05 | 54.53861 | 15.61116 | 17935 ft | 238 kts | 292° |
| 2026-05-04 10:05 | 54.54670 | 15.58625 | 17935 ft | 238 kts | 292° |
| 2026-05-04 10:05 | 54.55479 | 15.56128 | 17935 ft | 238 kts | 292° |
| 2026-05-04 10:06 | 54.56278 | 15.53660 | 17933 ft | 238 kts | 292° |
| 2026-05-04 10:06 | 54.57085 | 15.51167 | 17934 ft | 238 kts | 292° |
| 2026-05-04 10:06 | 54.57894 | 15.48669 | 17938 ft | 238 kts | 292° |
| 2026-05-04 10:08 | 54.62734 | 15.33659 | 17932 ft | 239 kts | 292° |
| 2026-05-04 10:08 | 54.63539 | 15.31152 | 17931 ft | 239 kts | 292° |
| 2026-05-04 10:08 | 54.64341 | 15.28645 | 17932 ft | 239 kts | 292° |
| 2026-05-04 10:08 | 54.65133 | 15.26174 | 17932 ft | 239 kts | 292° |
| 2026-05-04 10:09 | 54.65937 | 15.23662 | 17933 ft | 239 kts | 292° |
| 2026-05-04 10:09 | 54.66739 | 15.21148 | 17929 ft | 239 kts | 292° |
| 2026-05-04 10:09 | 54.67540 | 15.18639 | 17931 ft | 239 kts | 292° |
| 2026-05-04 10:09 | 54.68342 | 15.16125 | 17931 ft | 239 kts | 292° |
| 2026-05-04 10:10 | 54.69143 | 15.13612 | 17930 ft | 239 kts | 292° |
| 2026-05-04 10:10 | 54.69944 | 15.11097 | 17930 ft | 239 kts | 292° |
| 2026-05-04 10:10 | 54.70475 | 15.09426 | 17931 ft | 239 kts | 292° |
| 2026-05-04 10:10 | 54.71537 | 15.06084 | 17929 ft | 239 kts | 292° |
| 2026-05-04 10:11 | 54.72338 | 15.03561 | 17924 ft | 239 kts | 292° |
| 2026-05-04 10:11 | 54.72878 | 15.01857 | 17923 ft | 239 kts | 292° |
| 2026-05-04 10:11 | 54.73667 | 14.99365 | 17929 ft | 239 kts | 292° |
| 2026-05-04 10:11 | 54.74466 | 14.96843 | 17926 ft | 239 kts | 292° |
| 2026-05-04 10:12 | 54.75265 | 14.94317 | 17926 ft | 239 kts | 292° |
| 2026-05-04 10:12 | 54.76064 | 14.91783 | 17922 ft | 239 kts | 292° |
| 2026-05-04 10:12 | 54.76861 | 14.89253 | 17926 ft | 239 kts | 292° |
| 2026-05-04 10:12 | 54.77660 | 14.86722 | 17927 ft | 239 kts | 292° |
| 2026-05-04 10:13 | 54.78456 | 14.84190 | 17926 ft | 239 kts | 292° |
| 2026-05-04 10:13 | 54.79255 | 14.81651 | 17920 ft | 239 kts | 292° |
| 2026-05-04 10:13 | 54.80018 | 14.79219 | 17922 ft | 239 kts | 292° |
| 2026-05-04 10:13 | 54.80834 | 14.76625 | 17921 ft | 239 kts | 292° |
| 2026-05-04 10:14 | 54.81633 | 14.74077 | 17922 ft | 239 kts | 291° |
| 2026-05-04 10:14 | 54.82427 | 14.71540 | 17918 ft | 239 kts | 291° |
| 2026-05-04 10:16 | 54.87978 | 14.53737 | 17918 ft | 240 kts | 291° |
| 2026-05-04 10:16 | 54.88767 | 14.51186 | 17918 ft | 240 kts | 291° |
| 2026-05-04 10:16 | 54.89559 | 14.48641 | 17915 ft | 240 kts | 291° |
| 2026-05-04 10:16 | 54.90350 | 14.46084 | 17918 ft | 240 kts | 291° |
| 2026-05-04 10:17 | 54.91138 | 14.43538 | 17921 ft | 240 kts | 291° |
| 2026-05-04 10:17 | 54.91933 | 14.40970 | 17915 ft | 240 kts | 291° |
| 2026-05-04 10:19 | 54.97442 | 14.23070 | 17919 ft | 240 kts | 291° |
| 2026-05-04 10:19 | 54.98228 | 14.20504 | 17918 ft | 240 kts | 291° |
| 2026-05-04 10:19 | 54.99015 | 14.17934 | 17919 ft | 241 kts | 291° |
| 2026-05-04 10:19 | 54.99803 | 14.15358 | 17921 ft | 241 kts | 291° |
| 2026-05-04 10:20 | 55.00581 | 14.12813 | 17921 ft | 241 kts | 291° |
| 2026-05-04 10:20 | 55.01367 | 14.10236 | 17917 ft | 241 kts | 291° |
| 2026-05-04 10:20 | 55.02151 | 14.07663 | 17918 ft | 240 kts | 291° |
| 2026-05-04 10:20 | 55.02937 | 14.05086 | 17920 ft | 240 kts | 291° |
| 2026-05-04 10:21 | 55.03720 | 14.02511 | 17923 ft | 240 kts | 291° |
| 2026-05-04 10:21 | 55.04501 | 13.99938 | 17917 ft | 240 kts | 291° |
| 2026-05-04 10:21 | 55.05286 | 13.97358 | 17922 ft | 240 kts | 291° |
| 2026-05-04 10:21 | 55.06067 | 13.94780 | 17923 ft | 240 kts | 291° |
| 2026-05-04 10:22 | 55.07629 | 13.89619 | 17915 ft | 240 kts | 291° |
| 2026-05-04 10:22 | 55.08408 | 13.87038 | 17916 ft | 240 kts | 291° |
| 2026-05-04 10:22 | 55.09191 | 13.84444 | 17920 ft | 243 kts | 291° |
| 2026-05-04 10:23 | 55.09985 | 13.81806 | 17919 ft | 248 kts | 291° |
| 2026-05-04 10:23 | 55.10794 | 13.79121 | 17916 ft | 251 kts | 291° |
| 2026-05-04 10:25 | 55.16366 | 13.60542 | 17917 ft | 241 kts | 291° |
| 2026-05-04 10:25 | 55.17141 | 13.57944 | 17914 ft | 240 kts | 291° |
| 2026-05-04 10:25 | 55.17914 | 13.55357 | 17920 ft | 240 kts | 291° |
| 2026-05-04 10:25 | 55.18683 | 13.52766 | 17913 ft | 239 kts | 291° |
| 2026-05-04 10:26 | 55.19455 | 13.50187 | 17918 ft | 239 kts | 291° |
| 2026-05-04 10:26 | 55.20222 | 13.47609 | 17909 ft | 238 kts | 291° |
| 2026-05-04 10:26 | 55.20984 | 13.45039 | 17911 ft | 238 kts | 291° |
| 2026-05-04 10:26 | 55.21737 | 13.42494 | 17911 ft | 238 kts | 291° |
| 2026-05-04 10:27 | 55.22499 | 13.39921 | 17911 ft | 238 kts | 291° |
| 2026-05-04 10:27 | 55.23262 | 13.37343 | 17907 ft | 238 kts | 291° |
| 2026-05-04 10:27 | 55.24022 | 13.34772 | 17905 ft | 237 kts | 291° |
| 2026-05-04 10:27 | 55.24783 | 13.32203 | 17911 ft | 237 kts | 291° |
| 2026-05-04 10:28 | 55.25541 | 13.29633 | 17904 ft | 237 kts | 291° |
| 2026-05-04 10:28 | 55.26298 | 13.27059 | 17908 ft | 237 kts | 291° |
| 2026-05-04 10:28 | 55.27055 | 13.24487 | 17903 ft | 237 kts | 291° |
| 2026-05-04 10:28 | 55.27811 | 13.21915 | 17903 ft | 237 kts | 291° |
| 2026-05-04 10:29 | 55.28557 | 13.19374 | 17904 ft | 237 kts | 291° |
| 2026-05-04 10:29 | 55.29312 | 13.16802 | 17903 ft | 237 kts | 291° |
| 2026-05-04 10:29 | 55.30065 | 13.14230 | 17903 ft | 237 kts | 291° |
| 2026-05-04 10:29 | 55.30818 | 13.11659 | 17902 ft | 237 kts | 291° |
| 2026-05-04 10:30 | 55.31569 | 13.09090 | 17903 ft | 236 kts | 291° |
| 2026-05-04 10:30 | 55.32320 | 13.06519 | 17901 ft | 236 kts | 291° |
| 2026-05-04 10:30 | 55.33069 | 13.03952 | 17906 ft | 236 kts | 291° |
| 2026-05-04 10:30 | 55.33818 | 13.01386 | 17911 ft | 236 kts | 291° |
| 2026-05-04 10:31 | 55.34563 | 12.98824 | 17908 ft | 236 kts | 291° |
| 2026-05-04 10:31 | 55.35309 | 12.96258 | 17900 ft | 236 kts | 291° |
| 2026-05-04 10:32 | 55.39764 | 12.80880 | 17910 ft | 236 kts | 291° |
| 2026-05-04 10:33 | 55.40506 | 12.78310 | 17911 ft | 236 kts | 291° |
| 2026-05-04 10:33 | 55.41247 | 12.75736 | 17912 ft | 236 kts | 291° |
| 2026-05-04 10:33 | 55.41990 | 12.73157 | 17909 ft | 236 kts | 291° |
| 2026-05-04 10:33 | 55.42729 | 12.70586 | 17910 ft | 236 kts | 291° |
| 2026-05-04 10:34 | 55.43469 | 12.68007 | 17909 ft | 236 kts | 291° |
| 2026-05-04 10:34 | 55.44211 | 12.65427 | 17906 ft | 236 kts | 291° |
| 2026-05-04 10:34 | 55.44940 | 12.62882 | 17913 ft | 236 kts | 291° |
| 2026-05-04 10:34 | 55.45678 | 12.60299 | 17910 ft | 236 kts | 291° |
| 2026-05-04 10:35 | 55.46418 | 12.57711 | 17907 ft | 236 kts | 291° |
| 2026-05-04 10:35 | 55.47155 | 12.55132 | 17910 ft | 236 kts | 291° |
| 2026-05-04 10:35 | 55.47894 | 12.52539 | 17911 ft | 236 kts | 291° |
| 2026-05-04 10:35 | 55.48632 | 12.49952 | 17911 ft | 236 kts | 291° |
| 2026-05-04 10:36 | 55.49358 | 12.47402 | 17908 ft | 236 kts | 291° |
| 2026-05-04 10:36 | 55.50092 | 12.44818 | 17909 ft | 236 kts | 291° |
| 2026-05-04 10:36 | 55.50829 | 12.42228 | 17908 ft | 235 kts | 291° |
| 2026-05-04 10:36 | 55.51563 | 12.39640 | 17928 ft | 236 kts | 291° |
| 2026-05-04 10:37 | 55.52296 | 12.37051 | 17935 ft | 236 kts | 291° |
| 2026-05-04 10:37 | 55.53030 | 12.34467 | 17932 ft | 236 kts | 291° |
| 2026-05-04 10:37 | 55.53763 | 12.31875 | 17938 ft | 236 kts | 291° |
| 2026-05-04 10:37 | 55.54496 | 12.29276 | 17936 ft | 236 kts | 291° |
| 2026-05-04 10:39 | 55.58875 | 12.13714 | 17939 ft | 237 kts | 291° |
| 2026-05-04 10:39 | 55.59610 | 12.11090 | 17940 ft | 237 kts | 291° |
| 2026-05-04 10:39 | 55.60334 | 12.08508 | 17942 ft | 237 kts | 291° |
| 2026-05-04 10:40 | 55.61064 | 12.05894 | 17941 ft | 237 kts | 291° |
| 2026-05-04 10:40 | 55.61797 | 12.03278 | 17934 ft | 237 kts | 291° |
| 2026-05-04 10:40 | 55.62527 | 12.00657 | 17938 ft | 238 kts | 291° |
| 2026-05-04 10:40 | 55.63259 | 11.98025 | 17940 ft | 238 kts | 291° |
| 2026-05-04 10:41 | 55.63992 | 11.95398 | 17936 ft | 238 kts | 291° |
| 2026-05-04 10:41 | 55.64723 | 11.92765 | 17932 ft | 238 kts | 291° |
| 2026-05-04 10:41 | 55.65452 | 11.90140 | 17934 ft | 238 kts | 291° |
| 2026-05-04 10:41 | 55.66185 | 11.87503 | 17935 ft | 238 kts | 291° |
| 2026-05-04 10:42 | 55.66913 | 11.84875 | 17940 ft | 238 kts | 291° |
| 2026-05-04 10:42 | 55.67645 | 11.82236 | 17935 ft | 238 kts | 291° |
| 2026-05-04 10:42 | 55.68373 | 11.79597 | 17929 ft | 239 kts | 291° |
| 2026-05-04 10:42 | 55.69103 | 11.76952 | 17931 ft | 239 kts | 291° |
| 2026-05-04 10:43 | 55.69833 | 11.74306 | 17935 ft | 239 kts | 291° |
| 2026-05-04 10:44 | 55.74926 | 11.55757 | 17929 ft | 240 kts | 290° |
| 2026-05-04 10:45 | 55.75656 | 11.53091 | 17933 ft | 240 kts | 291° |
| 2026-05-04 10:45 | 55.76385 | 11.50423 | 17926 ft | 240 kts | 290° |
| 2026-05-04 10:45 | 55.77112 | 11.47754 | 17929 ft | 240 kts | 290° |
| 2026-05-04 10:45 | 55.77837 | 11.45091 | 17932 ft | 240 kts | 290° |
| 2026-05-04 10:46 | 55.78560 | 11.42422 | 17935 ft | 239 kts | 290° |
| 2026-05-04 10:46 | 55.79282 | 11.39757 | 17930 ft | 239 kts | 290° |
| 2026-05-04 10:46 | 55.80005 | 11.37090 | 17938 ft | 240 kts | 290° |
| 2026-05-04 10:46 | 55.80730 | 11.34413 | 17932 ft | 240 kts | 290° |
| 2026-05-04 10:47 | 55.81458 | 11.31742 | 17933 ft | 240 kts | 290° |
| 2026-05-04 10:47 | 55.82169 | 11.29107 | 17927 ft | 240 kts | 290° |
| 2026-05-04 10:47 | 55.82890 | 11.26438 | 17930 ft | 239 kts | 290° |
| 2026-05-04 10:47 | 55.83611 | 11.23766 | 17927 ft | 239 kts | 290° |
| 2026-05-04 10:49 | 55.88636 | 11.05055 | 17924 ft | 239 kts | 290° |
| 2026-05-04 10:49 | 55.89342 | 11.02413 | 17931 ft | 239 kts | 290° |
| 2026-05-04 10:50 | 55.90066 | 10.99702 | 17929 ft | 239 kts | 290° |
| 2026-05-04 10:51 | 55.95041 | 10.80994 | 17927 ft | 239 kts | 290° |
| 2026-05-04 10:52 | 55.95751 | 10.78313 | 17929 ft | 239 kts | 290° |
| 2026-05-04 10:52 | 55.96462 | 10.75625 | 17922 ft | 239 kts | 290° |
| 2026-05-04 10:52 | 55.97170 | 10.72942 | 17924 ft | 239 kts | 290° |
| 2026-05-04 10:54 | 56.02479 | 10.52707 | 15986 ft | 281 kts | 290° |
| 2026-05-04 10:54 | 56.03307 | 10.49531 | 15609 ft | 283 kts | 290° |
| 2026-05-04 10:56 | 56.09067 | 10.27347 | 13167 ft | 273 kts | 290° |
| 2026-05-04 10:56 | 56.09865 | 10.24248 | 12705 ft | 274 kts | 290° |
| 2026-05-04 10:56 | 56.10666 | 10.21148 | 12265 ft | 274 kts | 290° |
| 2026-05-04 10:57 | 56.11452 | 10.18092 | 11836 ft | 273 kts | 290° |
| 2026-05-04 10:57 | 56.12248 | 10.14997 | 11411 ft | 272 kts | 290° |
| 2026-05-04 10:57 | 56.13040 | 10.11916 | 10990 ft | 272 kts | 290° |
| 2026-05-04 10:57 | 56.13832 | 10.08832 | 10575 ft | 271 kts | 290° |
| 2026-05-04 10:58 | 56.14619 | 10.05771 | 10204 ft | 269 kts | 290° |
| 2026-05-04 10:58 | 56.15135 | 10.03761 | 10024 ft | 265 kts | 290° |
| 2026-05-04 10:58 | 56.16155 | 9.99774 | 9687 ft | 260 kts | 289° |
| 2026-05-04 10:58 | 56.16650 | 9.97835 | 9499 ft | 256 kts | 289° |
| 2026-05-04 10:59 | 56.17387 | 9.94939 | 9133 ft | 254 kts | 289° |
| 2026-05-04 10:59 | 56.18322 | 9.91304 | 8538 ft | 231 kts | 290° |
| 2026-05-04 10:59 | 56.18774 | 9.89579 | 8242 ft | 222 kts | 290° |
| 2026-05-04 10:59 | 56.19412 | 9.87148 | 7928 ft | 208 kts | 290° |
| 2026-05-04 11:00 | 56.20020 | 9.84771 | 7693 ft | 211 kts | 289° |
| 2026-05-04 11:01 | 56.24486 | 9.66866 | 5099 ft | 217 kts | 291° |
| 2026-05-04 11:02 | 56.25093 | 9.64459 | 4712 ft | 206 kts | 291° |
| 2026-05-04 11:02 | 56.25672 | 9.62147 | 4324 ft | 200 kts | 291° |
| 2026-05-04 11:05 | 56.29860 | 9.32294 | 2328 ft | 167 kts | 269° |
| 2026-05-04 11:06 | 56.29859 | 9.30198 | 2195 ft | 167 kts | 270° |
| 2026-05-04 11:06 | 56.29851 | 9.28080 | 1975 ft | 167 kts | 269° |
| 2026-05-04 11:06 | 56.29831 | 9.26058 | 1740 ft | 159 kts | 268° |
| 2026-05-04 11:06 | 56.29812 | 9.24144 | 1530 ft | 148 kts | 269° |
| 2026-05-04 11:08 | 56.29761 | 9.13898 | 380 ft | 105 kts | 271° |
| 2026-05-04 11:10 | 56.29906 | 9.10647 | 170 ft | 17 kts | 36° |
| 2026-05-04 11:12 | 56.30539 | 9.11412 | 173 ft | 15 kts | 31° |
| 2026-05-04 11:12 | 56.30615 | 9.11546 | 173 ft | 16 kts | 55° |
| 2026-05-04 11:12 | 56.30676 | 9.11722 | 173 ft | 17 kts | 54° |
| 2026-05-04 11:12 | 56.30739 | 9.11912 | 173 ft | 18 kts | 61° |
| 2026-05-04 11:13 | 56.30805 | 9.11974 | 173 ft | 7 kts | 330° |
| 2026-05-04 11:13 | 56.30845 | 9.11932 | 173 ft | 6 kts | 329° |
| 2026-05-04 11:13 | 56.30885 | 9.11888 | 173 ft | 8 kts | 329° |
| 2026-05-04 11:13 | 56.30938 | 9.11831 | 173 ft | 9 kts | 329° |
| 2026-05-04 11:14 | 56.30958 | 9.11812 | 173 ft | 10 kts | 334° |
| 2026-05-04 11:16 | 56.31110 | 9.11848 | 173 ft | 0 kts | 202° |